createdAt,value
2016-05-13T00:00:38.714Z,24.46
2016-05-13T00:01:38.545Z,24.52
2016-05-13T00:02:38.704Z,24.39
2016-05-13T00:03:38.691Z,24.39
2016-05-13T00:04:38.663Z,24.44
2016-05-13T00:05:39.056Z,24.37
2016-05-13T00:06:38.855Z,24.39
2016-05-13T00:07:38.499Z,24.41
2016-05-13T00:08:38.627Z,24.44
2016-05-13T00:09:38.457Z,24.39
2016-05-13T00:10:38.444Z,24.29
2016-05-13T00:11:38.604Z,24.39
2016-05-13T00:12:38.466Z,24.37
2016-05-13T00:13:39.015Z,24.34
2016-05-13T00:14:38.565Z,24.3
2016-05-13T00:15:38.551Z,24.29
2016-05-13T00:16:38.382Z,24.3
2016-05-13T00:17:38.915Z,24.24
2016-05-13T00:18:38.356Z,24.3
2016-05-13T00:19:38.501Z,24.23
2016-05-13T00:20:38.487Z,24.26
2016-05-13T00:21:38.506Z,24.29
2016-05-13T00:22:38.304Z,24.34
2016-05-13T00:23:38.307Z,24.44
2016-05-13T00:24:38.295Z,24.39
2016-05-13T00:25:38.437Z,24.26
2016-05-13T00:26:38.440Z,24.37
2016-05-13T00:27:38.412Z,24.33
2016-05-13T00:28:38.508Z,24.45
2016-05-13T00:29:38.417Z,24.39
2016-05-13T00:30:38.405Z,24.27
2016-05-13T00:31:38.375Z,24.26
2016-05-13T00:32:38.911Z,24.26
2016-05-13T00:33:38.366Z,24.3
2016-05-13T00:34:38.197Z,24.29
2016-05-13T00:35:38.183Z,24.26
2016-05-13T00:36:38.717Z,24.29
2016-05-13T00:37:38.313Z,24.26
2016-05-13T00:38:38.160Z,24.26
2016-05-13T00:39:38.304Z,24.24
2016-05-13T00:40:38.291Z,24.23
2016-05-13T00:41:38.278Z,24.29
2016-05-13T00:42:38.108Z,24.23
2016-05-13T00:43:38.252Z,24.24
2016-05-13T00:44:38.535Z,24.23
2016-05-13T00:45:38.226Z,24.24
2016-05-13T00:46:38.229Z,24.26
2016-05-13T00:47:38.169Z,24.23
2016-05-13T00:48:38.031Z,24.23
2016-05-13T00:49:38.174Z,24.21
2016-05-13T00:50:38.176Z,24.23
2016-05-13T00:51:38.007Z,24.27
2016-05-13T00:52:38.604Z,24.21
2016-05-13T00:53:38.137Z,24.27
2016-05-13T00:54:38.141Z,24.26
2016-05-13T00:55:37.972Z,24.24
2016-05-13T00:56:38.115Z,24.26
2016-05-13T00:57:38.103Z,24.31
2016-05-13T00:58:37.933Z,24.24
2016-05-13T00:59:37.936Z,24.19
2016-05-13T01:00:38.672Z,24.23
2016-05-13T01:01:38.077Z,24.24
2016-05-13T01:02:38.107Z,24.26
2016-05-13T01:03:38.138Z,24.23
2016-05-13T01:04:38.012Z,24.26
2016-05-13T01:05:38.184Z,24.24
2016-05-13T01:06:38.222Z,24.23
2016-05-13T01:07:38.084Z,24.24
2016-05-13T01:08:38.947Z,24.16
2016-05-13T01:09:38.090Z,24.33
2016-05-13T01:10:38.092Z,24.23
2016-05-13T01:11:38.249Z,24.26
2016-05-13T01:12:38.241Z,24.26
2016-05-13T01:13:38.234Z,24.24
2016-05-13T01:14:38.227Z,24.24
2016-05-13T01:15:38.235Z,24.16
2016-05-13T01:16:39.117Z,24.3
2016-05-13T01:17:38.059Z,24.23
2016-05-13T01:18:38.048Z,24.15
2016-05-13T01:19:38.193Z,24.21
2016-05-13T01:20:38.182Z,24.12
2016-05-13T01:21:38.170Z,24.15
2016-05-13T01:22:38.018Z,24.14
2016-05-13T01:23:38.209Z,24.23
2016-05-13T01:24:38.181Z,24.16
2016-05-13T01:25:37.967Z,24.15
2016-05-13T01:26:38.125Z,24.19
2016-05-13T01:27:38.145Z,24.15
2016-05-13T01:28:38.101Z,24.18
2016-05-13T01:29:38.087Z,24.18
2016-05-13T01:30:38.075Z,24.14
2016-05-13T01:31:38.063Z,24.14
2016-05-13T01:32:39.174Z,24.05
2016-05-13T01:33:38.037Z,24.08
2016-05-13T01:34:38.023Z,24.08
2016-05-13T01:35:37.870Z,24.09
2016-05-13T01:36:38.014Z,24.14
2016-05-13T01:37:38.001Z,24.14
2016-05-13T01:38:37.847Z,24.06
2016-05-13T01:39:37.990Z,24.12
2016-05-13T01:40:39.087Z,24.09
2016-05-13T01:41:37.809Z,24.06
2016-05-13T01:42:37.951Z,24.05
2016-05-13T01:43:37.939Z,24.08
2016-05-13T01:44:37.926Z,24
2016-05-13T01:45:37.912Z,23.97
2016-05-13T01:46:37.900Z,23.97
2016-05-13T01:47:38.262Z,24
2016-05-13T01:48:38.343Z,23.96
2016-05-13T01:49:37.893Z,23.93
2016-05-13T01:50:37.708Z,23.9
2016-05-13T01:51:37.851Z,23.87
2016-05-13T01:52:37.884Z,23.81
2016-05-13T01:53:37.684Z,23.79
2016-05-13T01:54:37.827Z,23.87
2016-05-13T01:55:37.814Z,23.86
2016-05-13T01:56:37.630Z,23.86
2016-05-13T01:57:37.805Z,23.92
2016-05-13T01:58:37.776Z,23.9
2016-05-13T01:59:37.763Z,23.9
2016-05-13T02:00:37.610Z,23.79
2016-05-13T02:01:37.752Z,23.72
2016-05-13T02:02:38.161Z,23.72
2016-05-13T02:03:37.727Z,23.68
2016-05-13T02:04:37.714Z,23.69
2016-05-13T02:05:37.701Z,23.72
2016-05-13T02:06:37.688Z,23.67
2016-05-13T02:07:37.518Z,23.72
2016-05-13T02:08:37.663Z,23.63
2016-05-13T02:09:37.649Z,23.63
2016-05-13T02:10:37.637Z,23.67
2016-05-13T02:11:37.327Z,23.62
2016-05-13T02:12:37.642Z,23.71
2016-05-13T02:13:37.612Z,23.68
2016-05-13T02:14:37.615Z,23.6
2016-05-13T02:15:37.432Z,23.67
2016-05-13T02:16:37.590Z,23.59
2016-05-13T02:17:37.640Z,23.71
2016-05-13T02:18:37.548Z,23.59
2016-05-13T02:19:37.566Z,23.57
2016-05-13T02:20:37.538Z,23.54
2016-05-13T02:21:37.525Z,23.54
2016-05-13T02:22:37.512Z,23.56
2016-05-13T02:23:37.531Z,23.53
2016-05-13T02:24:37.486Z,23.62
2016-05-13T02:25:37.473Z,23.57
2016-05-13T02:26:37.476Z,23.53
2016-05-13T02:27:37.463Z,23.59
2016-05-13T02:28:37.450Z,23.6
2016-05-13T02:29:37.453Z,23.69
2016-05-13T02:30:37.425Z,23.87
2016-05-13T02:31:37.411Z,23.87
2016-05-13T02:32:37.711Z,23.94
2016-05-13T02:33:37.401Z,23.93
2016-05-13T02:34:37.372Z,23.94
2016-05-13T02:35:37.374Z,23.89
2016-05-13T02:36:37.362Z,24
2016-05-13T02:37:37.350Z,23.97
2016-05-13T02:38:37.337Z,23.87
2016-05-13T02:39:37.324Z,23.97
2016-05-13T02:40:37.310Z,23.99
2016-05-13T02:41:37.298Z,23.97
2016-05-13T02:42:37.285Z,23.9
2016-05-13T02:43:37.115Z,23.92
2016-05-13T02:44:37.259Z,24.04
2016-05-13T02:45:37.418Z,23.97
2016-05-13T02:46:37.264Z,24.06
2016-05-13T02:47:37.329Z,24.05
2016-05-13T02:48:37.223Z,24.02
2016-05-13T02:49:37.226Z,24.02
2016-05-13T02:50:37.041Z,24.05
2016-05-13T02:51:37.200Z,24.04
2016-05-13T02:52:37.186Z,24.06
2016-05-13T02:53:37.377Z,24.02
2016-05-13T02:54:37.161Z,24.08
2016-05-13T02:55:37.147Z,24
2016-05-13T02:56:37.151Z,23.87
2016-05-13T02:57:36.966Z,24.04
2016-05-13T02:58:37.109Z,23.99
2016-05-13T02:59:37.096Z,24.08
2016-05-13T03:00:37.083Z,24.06
2016-05-13T03:01:37.383Z,24
2016-05-13T03:02:37.213Z,23.94
2016-05-13T03:03:37.060Z,24.08
2016-05-13T03:04:37.047Z,24.05
2016-05-13T03:05:36.878Z,24.02
2016-05-13T03:06:37.021Z,23.92
2016-05-13T03:07:37.024Z,24.09
2016-05-13T03:08:37.011Z,23.97
2016-05-13T03:09:37.389Z,24.11
2016-05-13T03:10:37.001Z,23.96
2016-05-13T03:11:36.972Z,24.04
2016-05-13T03:12:36.959Z,24
2016-05-13T03:13:36.790Z,24.02
2016-05-13T03:14:36.934Z,24
2016-05-13T03:15:36.936Z,23.93
2016-05-13T03:16:36.751Z,24.04
2016-05-13T03:17:37.410Z,24
2016-05-13T03:18:36.912Z,24.05
2016-05-13T03:19:36.728Z,24.06
2016-05-13T03:20:36.870Z,24.04
2016-05-13T03:21:36.858Z,24.04
2016-05-13T03:22:36.846Z,24.05
2016-05-13T03:23:36.848Z,24.02
2016-05-13T03:24:36.820Z,23.93
2016-05-13T03:25:37.416Z,24.02
2016-05-13T03:26:36.794Z,23.99
2016-05-13T03:27:36.797Z,24
2016-05-13T03:28:36.783Z,23.93
2016-05-13T03:29:36.786Z,23.97
2016-05-13T03:30:36.602Z,23.89
2016-05-13T03:31:36.760Z,24.02
2016-05-13T03:32:36.763Z,23.9
2016-05-13T03:33:37.438Z,23.99
2016-05-13T03:34:36.706Z,23.96
2016-05-13T03:35:36.553Z,23.9
2016-05-13T03:36:36.696Z,23.97
2016-05-13T03:37:36.683Z,23.97
2016-05-13T03:38:36.669Z,23.96
2016-05-13T03:39:36.516Z,24.02
2016-05-13T03:40:36.643Z,23.92
2016-05-13T03:41:36.694Z,23.99
2016-05-13T03:42:36.618Z,23.96
2016-05-13T03:43:36.605Z,23.96
2016-05-13T03:44:36.452Z,23.97
2016-05-13T03:45:36.595Z,24.02
2016-05-13T03:46:36.582Z,23.94
2016-05-13T03:47:36.585Z,23.97
2016-05-13T03:48:36.571Z,23.9
2016-05-13T03:49:36.699Z,23.87
2016-05-13T03:50:36.562Z,23.89
2016-05-13T03:51:36.533Z,23.9
2016-05-13T03:52:36.520Z,23.89
2016-05-13T03:53:36.351Z,23.9
2016-05-13T03:54:36.354Z,23.94
2016-05-13T03:55:36.497Z,23.93
2016-05-13T03:56:36.468Z,23.87
2016-05-13T03:57:36.705Z,23.92
2016-05-13T03:58:36.442Z,23.82
2016-05-13T03:59:36.430Z,23.92
2016-05-13T04:00:36.275Z,23.84
2016-05-13T04:01:36.420Z,23.89
2016-05-13T04:02:36.469Z,23.93
2016-05-13T04:03:36.253Z,23.86
2016-05-13T04:04:36.380Z,23.82
2016-05-13T04:05:36.727Z,23.89
2016-05-13T04:06:36.354Z,23.9
2016-05-13T04:07:36.358Z,23.92
2016-05-13T04:08:36.344Z,23.92
2016-05-13T04:09:36.332Z,23.89
2016-05-13T04:10:36.318Z,23.87
2016-05-13T04:11:36.165Z,23.86
2016-05-13T04:12:36.355Z,23.82
2016-05-13T04:13:36.124Z,23.93
2016-05-13T04:14:36.282Z,23.89
2016-05-13T04:15:35.941Z,23.87
2016-05-13T04:16:36.100Z,23.81
2016-05-13T04:17:36.462Z,23.86
2016-05-13T04:18:36.074Z,23.77
2016-05-13T04:19:36.218Z,23.84
2016-05-13T04:20:36.408Z,23.89
2016-05-13T04:21:36.207Z,23.81
2016-05-13T04:22:36.179Z,23.79
2016-05-13T04:23:36.009Z,23.89
2016-05-13T04:24:36.168Z,23.78
2016-05-13T04:25:36.139Z,23.87
2016-05-13T04:26:36.143Z,23.81
2016-05-13T04:27:36.130Z,23.82
2016-05-13T04:28:36.367Z,23.86
2016-05-13T04:29:36.089Z,23.81
2016-05-13T04:30:36.091Z,23.77
2016-05-13T04:31:36.078Z,23.78
2016-05-13T04:32:35.955Z,23.81
2016-05-13T04:33:36.052Z,23.84
2016-05-13T04:34:36.039Z,23.78
2016-05-13T04:35:36.027Z,23.84
2016-05-13T04:36:36.372Z,23.77
2016-05-13T04:37:35.703Z,23.79
2016-05-13T04:38:35.847Z,23.81
2016-05-13T04:39:36.006Z,23.75
2016-05-13T04:40:35.977Z,23.78
2016-05-13T04:41:35.980Z,23.82
2016-05-13T04:42:35.810Z,23.74
2016-05-13T04:43:35.938Z,23.79
2016-05-13T04:44:36.378Z,23.77
2016-05-13T04:45:35.772Z,23.82
2016-05-13T04:46:35.916Z,23.84
2016-05-13T04:47:35.605Z,23.79
2016-05-13T04:48:35.889Z,23.84
2016-05-13T04:49:35.876Z,23.75
2016-05-13T04:50:35.862Z,23.77
2016-05-13T04:51:35.850Z,23.78
2016-05-13T04:52:36.385Z,23.84
2016-05-13T04:53:35.825Z,23.78
2016-05-13T04:54:35.827Z,23.78
2016-05-13T04:55:35.814Z,23.78
2016-05-13T04:56:35.801Z,23.74
2016-05-13T04:57:35.804Z,23.75
2016-05-13T04:58:35.776Z,23.77
2016-05-13T04:59:36.262Z,23.74
2016-05-13T05:00:35.765Z,23.71
2016-05-13T05:01:35.736Z,23.79
2016-05-13T05:02:35.583Z,23.75
2016-05-13T05:03:35.727Z,23.82
2016-05-13T05:04:35.714Z,23.77
2016-05-13T05:05:35.717Z,23.69
2016-05-13T05:06:35.703Z,23.78
2016-05-13T05:07:36.269Z,23.77
2016-05-13T05:08:35.677Z,23.75
2016-05-13T05:09:35.649Z,23.71
2016-05-13T05:10:35.870Z,23.77
2016-05-13T05:11:35.655Z,23.72
2016-05-13T05:12:35.626Z,23.78
2016-05-13T05:13:35.613Z,23.79
2016-05-13T05:14:35.600Z,23.69
2016-05-13T05:15:36.290Z,23.75
2016-05-13T05:16:35.574Z,23.67
2016-05-13T05:17:35.764Z,23.68
2016-05-13T05:18:35.407Z,23.79
2016-05-13T05:19:35.535Z,23.67
2016-05-13T05:20:35.523Z,23.78
2016-05-13T05:21:35.525Z,23.67
2016-05-13T05:22:35.528Z,23.78
2016-05-13T05:23:35.592Z,23.78
2016-05-13T05:24:35.487Z,23.75
2016-05-13T05:25:35.473Z,23.79
2016-05-13T05:26:35.476Z,23.82
2016-05-13T05:27:35.462Z,23.79
2016-05-13T05:28:35.278Z,23.81
2016-05-13T05:29:35.436Z,23.75
2016-05-13T05:30:35.424Z,23.84
2016-05-13T05:31:35.568Z,23.77
2016-05-13T05:32:35.398Z,23.86
2016-05-13T05:33:35.526Z,23.78
2016-05-13T05:34:35.216Z,23.79
2016-05-13T05:35:35.359Z,23.82
2016-05-13T05:36:35.347Z,23.82
2016-05-13T05:37:35.333Z,23.81
2016-05-13T05:38:35.164Z,23.79
2016-05-13T05:39:35.605Z,23.77
2016-05-13T05:40:35.311Z,23.71
2016-05-13T05:41:35.297Z,23.77
2016-05-13T05:42:35.300Z,23.78
2016-05-13T05:43:35.115Z,23.77
2016-05-13T05:44:35.274Z,23.79
2016-05-13T05:45:35.245Z,23.79
2016-05-13T05:46:35.248Z,23.77
2016-05-13T05:47:36.096Z,23.79
2016-05-13T05:48:35.207Z,23.77
2016-05-13T05:49:35.210Z,23.78
2016-05-13T05:50:35.040Z,23.74
2016-05-13T05:51:35.184Z,23.74
2016-05-13T05:52:35.171Z,23.81
2016-05-13T05:53:35.173Z,23.75
2016-05-13T05:54:34.989Z,23.79
2016-05-13T05:55:36.350Z,23.75
2016-05-13T05:56:35.120Z,23.72
2016-05-13T05:57:35.122Z,23.77
2016-05-13T05:58:35.109Z,23.74
2016-05-13T05:59:35.081Z,23.72
2016-05-13T06:00:35.114Z,23.79
2016-05-13T06:01:35.086Z,23.81
2016-05-13T06:02:35.072Z,23.67
2016-05-13T06:03:35.059Z,23.68
2016-05-13T06:04:35.031Z,23.77
2016-05-13T06:05:35.019Z,23.79
2016-05-13T06:06:35.021Z,23.71
2016-05-13T06:07:35.008Z,23.78
2016-05-13T06:08:34.839Z,23.67
2016-05-13T06:09:34.998Z,23.68
2016-05-13T06:10:34.969Z,23.77
2016-05-13T06:11:34.955Z,23.68
2016-05-13T06:12:34.943Z,23.69
2016-05-13T06:13:34.946Z,23.79
2016-05-13T06:14:34.918Z,23.77
2016-05-13T06:15:34.904Z,23.82
2016-05-13T06:16:34.907Z,23.78
2016-05-13T06:17:35.097Z,23.77
2016-05-13T06:18:34.882Z,23.81
2016-05-13T06:19:34.885Z,23.78
2016-05-13T06:20:34.855Z,23.84
2016-05-13T06:21:34.843Z,23.87
2016-05-13T06:22:34.674Z,23.81
2016-05-13T06:23:34.832Z,23.84
2016-05-13T06:24:34.820Z,23.81
2016-05-13T06:25:34.806Z,23.81
2016-05-13T06:26:34.793Z,23.9
2016-05-13T06:27:34.781Z,23.9
2016-05-13T06:28:34.752Z,23.84
2016-05-13T06:29:34.754Z,23.84
2016-05-13T06:30:34.586Z,23.79
2016-05-13T06:31:34.728Z,23.74
2016-05-13T06:32:34.576Z,23.74
2016-05-13T06:33:34.562Z,23.82
2016-05-13T06:34:34.705Z,23.74
2016-05-13T06:35:34.692Z,23.79
2016-05-13T06:36:34.680Z,23.78
2016-05-13T06:37:34.697Z,23.78
2016-05-13T06:38:34.670Z,23.79
2016-05-13T06:39:34.656Z,23.82
2016-05-13T06:40:34.627Z,23.84
2016-05-13T06:41:34.630Z,23.82
2016-05-13T06:42:34.619Z,23.84
2016-05-13T06:43:34.604Z,23.87
2016-05-13T06:44:34.638Z,23.78
2016-05-13T06:45:34.266Z,23.89
2016-05-13T06:46:34.410Z,23.78
2016-05-13T06:47:34.928Z,23.82
2016-05-13T06:48:34.243Z,23.92
2016-05-13T06:49:34.527Z,23.72
2016-05-13T06:50:34.404Z,23.86
2016-05-13T06:51:34.517Z,23.82
2016-05-13T06:52:34.645Z,23.86
2016-05-13T06:53:34.537Z,23.78
2016-05-13T06:54:34.165Z,23.84
2016-05-13T06:55:34.309Z,23.82
2016-05-13T06:56:34.296Z,23.87
2016-05-13T06:57:34.440Z,23.9
2016-05-13T06:58:34.426Z,23.81
2016-05-13T06:59:34.413Z,23.87
2016-05-13T07:00:34.651Z,23.86
2016-05-13T07:01:34.248Z,23.93
2016-05-13T07:02:34.406Z,23.89
2016-05-13T07:03:34.378Z,23.87
2016-05-13T07:04:34.364Z,23.92
2016-05-13T07:05:34.351Z,23.84
2016-05-13T07:06:34.339Z,23.9
2016-05-13T07:07:34.169Z,23.9
2016-05-13T07:08:34.688Z,23.87
2016-05-13T07:09:34.315Z,23.84
2016-05-13T07:10:34.303Z,23.86
2016-05-13T07:11:34.289Z,23.9
2016-05-13T07:12:34.276Z,23.84
2016-05-13T07:13:34.264Z,23.84
2016-05-13T07:14:34.250Z,23.89
2016-05-13T07:15:34.238Z,23.9
2016-05-13T07:16:34.694Z,23.92
2016-05-13T07:17:34.212Z,23.89
2016-05-13T07:18:34.198Z,23.89
2016-05-13T07:19:34.202Z,23.94
2016-05-13T07:20:34.188Z,23.89
2016-05-13T07:21:34.176Z,23.86
2016-05-13T07:22:34.179Z,23.9
2016-05-13T07:23:34.166Z,23.87
2016-05-13T07:24:34.699Z,23.9
2016-05-13T07:25:33.983Z,23.87
2016-05-13T07:26:34.127Z,23.87
2016-05-13T07:27:34.114Z,23.9
2016-05-13T07:28:34.101Z,23.89
2016-05-13T07:29:34.104Z,23.93
2016-05-13T07:30:34.075Z,23.9
2016-05-13T07:31:34.062Z,23.9
2016-05-13T07:32:34.268Z,23.92
2016-05-13T07:33:34.036Z,23.94
2016-05-13T07:34:33.883Z,23.84
2016-05-13T07:35:34.010Z,23.84
2016-05-13T07:36:33.841Z,23.9
2016-05-13T07:37:34.000Z,23.94
2016-05-13T07:38:33.847Z,23.9
2016-05-13T07:39:33.974Z,23.82
2016-05-13T07:40:33.945Z,23.71
2016-05-13T07:41:33.964Z,23.63
2016-05-13T07:42:33.951Z,23.56
2016-05-13T07:43:33.767Z,23.57
2016-05-13T07:44:33.910Z,23.54
2016-05-13T07:45:33.755Z,23.5
2016-05-13T07:46:33.758Z,23.56
2016-05-13T07:47:33.918Z,23.54
2016-05-13T07:48:33.967Z,23.52
2016-05-13T07:49:33.845Z,23.57
2016-05-13T07:50:33.847Z,23.62
2016-05-13T07:51:33.819Z,23.67
2016-05-13T07:52:33.838Z,23.63
2016-05-13T07:53:33.809Z,23.6
2016-05-13T07:54:33.796Z,23.64
2016-05-13T07:55:33.782Z,23.64
2016-05-13T07:56:33.973Z,23.56
2016-05-13T07:57:33.773Z,23.6
2016-05-13T07:58:33.760Z,23.45
2016-05-13T07:59:33.590Z,23.44
2016-05-13T08:00:33.796Z,23.41
2016-05-13T08:01:33.721Z,23.5
2016-05-13T08:02:33.458Z,23.53
2016-05-13T08:03:33.695Z,23.45
2016-05-13T08:04:33.978Z,23.41
2016-05-13T08:05:33.529Z,23.5
2016-05-13T08:06:33.672Z,23.47
2016-05-13T08:07:33.659Z,23.41
2016-05-13T08:08:33.490Z,23.41
2016-05-13T08:09:33.634Z,23.45
2016-05-13T08:10:33.464Z,23.52
2016-05-13T08:11:33.607Z,23.45
2016-05-13T08:12:34.016Z,23.45
2016-05-13T08:13:33.425Z,23.44
2016-05-13T08:14:33.412Z,23.44
2016-05-13T08:15:33.572Z,23.45
2016-05-13T08:16:33.574Z,23.45
2016-05-13T08:17:33.655Z,23.44
2016-05-13T08:18:33.533Z,23.42
2016-05-13T08:19:33.613Z,23.44
2016-05-13T08:20:33.522Z,23.47
2016-05-13T08:21:33.493Z,23.42
2016-05-13T08:22:33.481Z,23.39
2016-05-13T08:23:33.468Z,23.59
2016-05-13T08:24:33.470Z,23.64
2016-05-13T08:25:33.442Z,23.6
2016-05-13T08:26:33.538Z,23.67
2016-05-13T08:27:33.885Z,23.79
2016-05-13T08:28:33.418Z,23.78
2016-05-13T08:29:33.421Z,23.78
2016-05-13T08:30:33.409Z,23.68
2016-05-13T08:31:33.379Z,23.67
2016-05-13T08:32:33.523Z,23.6
2016-05-13T08:33:33.354Z,23.62
2016-05-13T08:34:33.544Z,23.63
2016-05-13T08:35:33.343Z,23.64
2016-05-13T08:36:33.346Z,23.63
2016-05-13T08:37:33.318Z,23.67
2016-05-13T08:38:33.306Z,23.75
2016-05-13T08:39:33.136Z,23.77
2016-05-13T08:40:33.295Z,23.79
2016-05-13T08:41:33.109Z,23.79
2016-05-13T08:42:33.503Z,23.87
2016-05-13T08:43:33.256Z,23.87
2016-05-13T08:44:33.227Z,23.79
2016-05-13T08:45:33.214Z,23.75
2016-05-13T08:46:33.217Z,23.84
2016-05-13T08:47:33.236Z,23.77
2016-05-13T08:48:33.035Z,23.79
2016-05-13T08:49:33.038Z,23.92
2016-05-13T08:50:33.618Z,23.82
2016-05-13T08:51:32.996Z,23.81
2016-05-13T08:52:33.139Z,23.86
2016-05-13T08:53:32.971Z,23.79
2016-05-13T08:54:33.144Z,23.78
2016-05-13T08:55:33.101Z,23.84
2016-05-13T08:56:33.119Z,23.77
2016-05-13T08:57:33.074Z,23.79
2016-05-13T08:58:33.577Z,23.86
2016-05-13T08:59:33.065Z,23.77
2016-05-13T09:00:32.911Z,23.84
2016-05-13T09:01:33.038Z,23.89
2016-05-13T09:02:33.198Z,23.84
2016-05-13T09:03:32.856Z,23.82
2016-05-13T09:04:32.859Z,23.77
2016-05-13T09:05:32.987Z,23.79
2016-05-13T09:06:33.536Z,23.87
2016-05-13T09:07:32.976Z,23.94
2016-05-13T09:08:32.964Z,23.92
2016-05-13T09:09:32.951Z,23.89
2016-05-13T09:10:32.937Z,23.94
2016-05-13T09:11:32.925Z,23.97
2016-05-13T09:12:32.912Z,23.99
2016-05-13T09:13:32.743Z,23.93
2016-05-13T09:14:33.448Z,23.92
2016-05-13T09:15:32.889Z,23.94
2016-05-13T09:16:32.719Z,23.94
2016-05-13T09:17:32.550Z,23.96
2016-05-13T09:18:32.694Z,23.97
2016-05-13T09:19:32.837Z,23.9
2016-05-13T09:20:32.668Z,23.92
2016-05-13T09:21:32.827Z,24.06
2016-05-13T09:22:32.877Z,24.11
2016-05-13T09:23:32.629Z,24.05
2016-05-13T09:24:32.788Z,24.02
2016-05-13T09:25:32.775Z,24.05
2016-05-13T09:26:32.763Z,24.09
2016-05-13T09:27:32.765Z,24.08
2016-05-13T09:28:32.580Z,24.02
2016-05-13T09:29:32.723Z,23.97
2016-05-13T09:30:32.866Z,23.92
2016-05-13T09:31:32.713Z,23.89
2016-05-13T09:32:32.888Z,23.89
2016-05-13T09:33:32.531Z,23.96
2016-05-13T09:34:32.674Z,23.99
2016-05-13T09:35:32.662Z,23.87
2016-05-13T09:36:32.648Z,24.04
2016-05-13T09:37:32.635Z,24.02
2016-05-13T09:38:33.950Z,24
2016-05-13T09:39:32.626Z,24
2016-05-13T09:40:32.456Z,24.11
2016-05-13T09:41:32.584Z,24.06
2016-05-13T09:42:32.461Z,24.14
2016-05-13T09:43:32.573Z,24.08
2016-05-13T09:44:32.576Z,24.14
2016-05-13T09:45:32.547Z,24.12
2016-05-13T09:46:32.831Z,24.15
2016-05-13T09:47:32.553Z,23.99
2016-05-13T09:48:37.164Z,24.19
2016-05-13T09:49:34.496Z,24.15
2016-05-13T09:50:32.342Z,24.14
2016-05-13T09:51:32.344Z,24.18
2016-05-13T09:52:32.457Z,24.08
2016-05-13T09:53:32.460Z,24.18
2016-05-13T09:54:32.899Z,24.06
2016-05-13T09:55:32.430Z,24.14
2016-05-13T09:56:32.418Z,24.08
2016-05-13T09:57:32.436Z,24.08
2016-05-13T09:58:32.392Z,24.18
2016-05-13T09:59:32.380Z,24.08
2016-05-13T10:00:32.366Z,24.21
2016-05-13T10:01:32.369Z,24.12
2016-05-13T10:02:32.371Z,24.12
2016-05-13T10:03:32.327Z,24.16
2016-05-13T10:04:32.330Z,24.23
2016-05-13T10:05:32.317Z,24.24
2016-05-13T10:06:32.304Z,24.14
2016-05-13T10:07:32.307Z,24.16
2016-05-13T10:08:32.297Z,24.14
2016-05-13T10:09:32.327Z,24.15
2016-05-13T10:10:32.372Z,24.19
2016-05-13T10:11:32.403Z,24.33
2016-05-13T10:12:32.276Z,24.23
2016-05-13T10:13:32.450Z,24.19
2016-05-13T10:14:32.453Z,24.16
2016-05-13T10:15:32.455Z,24.21
2016-05-13T10:16:32.457Z,24.14
2016-05-13T10:17:32.476Z,24.21
2016-05-13T10:18:32.332Z,24.09
2016-05-13T10:19:32.465Z,24.14
2016-05-13T10:20:32.442Z,24.15
2016-05-13T10:21:32.309Z,24.24
2016-05-13T10:22:32.442Z,24.21
2016-05-13T10:23:32.121Z,24.19
2016-05-13T10:24:32.453Z,24.24
2016-05-13T10:25:32.427Z,24.21
2016-05-13T10:26:32.260Z,24.26
2016-05-13T10:27:32.234Z,24.26
2016-05-13T10:28:32.393Z,24.14
2016-05-13T10:29:32.382Z,24.18
2016-05-13T10:30:32.369Z,24.27
2016-05-13T10:31:32.388Z,24.26
2016-05-13T10:32:32.204Z,24.21
2016-05-13T10:33:32.239Z,24.24
2016-05-13T10:34:32.320Z,24.26
2016-05-13T10:35:32.323Z,24.34
2016-05-13T10:36:32.295Z,24.33
2016-05-13T10:37:32.298Z,24.23
2016-05-13T10:38:32.285Z,24.27
2016-05-13T10:39:32.288Z,24.21
2016-05-13T10:40:32.275Z,24.29
2016-05-13T10:41:32.262Z,24.31
2016-05-13T10:42:32.093Z,24.19
2016-05-13T10:43:32.236Z,24.29
2016-05-13T10:44:32.520Z,24.31
2016-05-13T10:45:32.210Z,24.26
2016-05-13T10:46:32.041Z,24.27
2016-05-13T10:47:32.840Z,24.29
2016-05-13T10:48:32.530Z,24.33
2016-05-13T10:49:32.190Z,24.26
2016-05-13T10:50:32.161Z,24.31
2016-05-13T10:51:32.227Z,24.24
2016-05-13T10:52:32.136Z,24.29
2016-05-13T10:53:31.826Z,24.36
2016-05-13T10:54:32.125Z,24.33
2016-05-13T10:55:31.784Z,24.36
2016-05-13T10:56:32.099Z,24.44
2016-05-13T10:57:32.070Z,24.33
2016-05-13T10:58:31.918Z,24.27
2016-05-13T10:59:32.248Z,24.27
2016-05-13T11:00:32.078Z,24.27
2016-05-13T11:01:32.050Z,24.24
2016-05-13T11:02:32.881Z,24.14
2016-05-13T11:03:31.868Z,24.21
2016-05-13T11:04:31.995Z,24.16
2016-05-13T11:05:31.842Z,24.14
2016-05-13T11:06:31.970Z,24.09
2016-05-13T11:07:32.253Z,24.15
2016-05-13T11:08:31.803Z,24.19
2016-05-13T11:09:31.931Z,24.21
2016-05-13T11:10:31.778Z,24.24
2016-05-13T11:11:31.921Z,24.24
2016-05-13T11:12:31.908Z,24.26
2016-05-13T11:13:31.755Z,24.37
2016-05-13T11:14:31.725Z,24.24
2016-05-13T11:15:32.275Z,24.27
2016-05-13T11:16:31.871Z,24.27
2016-05-13T11:17:33.624Z,24.26
2016-05-13T11:18:32.877Z,24.06
2016-05-13T11:19:31.833Z,24.16
2016-05-13T11:20:31.679Z,24.14
2016-05-13T11:21:31.807Z,24.09
2016-05-13T11:22:31.638Z,24.05
2016-05-13T11:23:32.297Z,23.97
2016-05-13T11:24:31.612Z,23.93
2016-05-13T11:25:31.755Z,23.87
2016-05-13T11:26:31.743Z,23.75
2016-05-13T11:27:34.042Z,23.77
2016-05-13T11:28:31.732Z,23.77
2016-05-13T11:29:31.704Z,23.81
2016-05-13T11:30:31.706Z,23.89
2016-05-13T11:31:32.287Z,23.81
2016-05-13T11:32:32.353Z,23.93
2016-05-13T11:33:31.495Z,23.97
2016-05-13T11:34:31.483Z,23.93
2016-05-13T11:35:31.642Z,24.05
2016-05-13T11:36:31.628Z,24.08
2016-05-13T11:37:31.459Z,24.14
2016-05-13T11:38:31.603Z,24.16
2016-05-13T11:39:31.528Z,24.27
2016-05-13T11:40:31.452Z,24.19
2016-05-13T11:41:31.564Z,24.19
2016-05-13T11:42:31.550Z,24.24
2016-05-13T11:43:31.538Z,24.27
2016-05-13T11:44:31.541Z,24.3
2016-05-13T11:45:31.527Z,24.31
2016-05-13T11:46:31.499Z,24.27
2016-05-13T11:47:31.564Z,24.3
2016-05-13T11:48:31.489Z,24.36
2016-05-13T11:49:31.477Z,24.41
2016-05-13T11:50:31.480Z,24.42
2016-05-13T11:51:31.482Z,24.45
2016-05-13T11:52:31.452Z,24.41
2016-05-13T11:53:31.440Z,24.45
2016-05-13T11:54:31.443Z,24.48
2016-05-13T11:55:31.571Z,24.51
2016-05-13T11:56:31.245Z,24.45
2016-05-13T11:57:31.373Z,24.46
2016-05-13T11:58:31.376Z,24.48
2016-05-13T11:59:31.362Z,24.55
2016-05-13T12:00:31.349Z,24.6
2016-05-13T12:01:31.336Z,24.68
2016-05-13T12:02:31.449Z,24.68
2016-05-13T12:03:31.576Z,24.6
2016-05-13T12:04:31.314Z,24.79
2016-05-13T12:05:31.285Z,24.86
2016-05-13T12:06:31.287Z,24.83
2016-05-13T12:07:31.118Z,24.93
2016-05-13T12:08:31.106Z,24.97
2016-05-13T12:09:31.092Z,25.04
2016-05-13T12:10:31.189Z,24.99
2016-05-13T12:11:31.583Z,24.99
2016-05-13T12:12:31.053Z,25.05
2016-05-13T12:13:30.900Z,25.07
2016-05-13T12:14:31.043Z,25.12
2016-05-13T12:15:31.280Z,25.04
2016-05-13T12:16:31.174Z,25.11
2016-05-13T12:17:31.020Z,25.01
2016-05-13T12:18:31.210Z,25.14
2016-05-13T12:19:30.994Z,25.16
2016-05-13T12:20:31.122Z,25.16
2016-05-13T12:21:30.969Z,25.24
2016-05-13T12:22:31.112Z,25.29
2016-05-13T12:23:31.083Z,25.17
2016-05-13T12:24:31.101Z,25.22
2016-05-13T12:25:31.058Z,25.3
2016-05-13T12:26:31.091Z,25.35
2016-05-13T12:27:31.047Z,25.41
2016-05-13T12:28:30.879Z,25.46
2016-05-13T12:29:30.881Z,25.57
2016-05-13T12:30:31.009Z,25.63
2016-05-13T12:31:31.012Z,25.63
2016-05-13T12:32:31.357Z,25.57
2016-05-13T12:33:30.985Z,25.74
2016-05-13T12:34:31.238Z,25.72
2016-05-13T12:35:30.959Z,25.71
2016-05-13T12:36:30.962Z,25.79
2016-05-13T12:37:30.965Z,25.74
2016-05-13T12:38:30.936Z,25.71
2016-05-13T12:39:30.768Z,25.61
2016-05-13T12:40:30.770Z,25.6
2016-05-13T12:41:30.897Z,25.67
2016-05-13T12:42:31.229Z,25.74
2016-05-13T12:43:30.903Z,25.64
2016-05-13T12:44:30.718Z,25.59
2016-05-13T12:45:30.862Z,25.56
2016-05-13T12:46:30.848Z,25.61
2016-05-13T12:47:31.226Z,25.75
2016-05-13T12:48:31.369Z,25.75
2016-05-13T12:49:30.825Z,25.6
2016-05-13T12:50:31.250Z,25.63
2016-05-13T12:51:30.799Z,25.74
2016-05-13T12:52:30.802Z,25.78
2016-05-13T12:53:30.633Z,25.78
2016-05-13T12:54:30.619Z,25.86
2016-05-13T12:55:30.763Z,25.83